sensor_id;sensor_type;location;lat;lon;timestamp;pressure;altitude;pressure_sealevel;temperature;humidity
65010;BME280;51556;50.002;22.014;2022-09-12T00:03:29;98763.57;;;13.38;73.69
65010;BME280;51556;50.002;22.014;2022-09-12T00:05:55;98763.16;;;13.39;74.04
65010;BME280;51556;50.002;22.014;2022-09-12T00:08:20;98764.73;;;13.36;73.96
65010;BME280;51556;50.002;22.014;2022-09-12T00:10:46;98767.60;;;13.28;73.60
65010;BME280;51556;50.002;22.014;2022-09-12T00:13:11;98767.31;;;13.26;73.73
65010;BME280;51556;50.002;22.014;2022-09-12T00:15:40;98767.55;;;13.29;74.05
65010;BME280;51556;50.002;22.014;2022-09-12T00:18:08;98767.03;;;13.29;73.14
65010;BME280;51556;50.002;22.014;2022-09-12T00:20:34;98762.25;;;13.28;73.52
65010;BME280;51556;50.002;22.014;2022-09-12T00:22:59;98765.71;;;13.30;72.99
65010;BME280;51556;50.002;22.014;2022-09-12T00:25:26;98768.25;;;13.21;73.07
65010;BME280;51556;50.002;22.014;2022-09-12T00:27:54;98772.07;;;13.11;73.20
65010;BME280;51556;50.002;22.014;2022-09-12T00:30:20;98771.55;;;13.10;73.16
65010;BME280;51556;50.002;22.014;2022-09-12T00:32:45;98766.95;;;13.10;73.60
65010;BME280;51556;50.002;22.014;2022-09-12T00:35:11;98763.52;;;13.12;73.43
65010;BME280;51556;50.002;22.014;2022-09-12T00:37:37;98766.05;;;13.10;72.95
65010;BME280;51556;50.002;22.014;2022-09-12T00:40:02;98765.91;;;13.10;72.94
65010;BME280;51556;50.002;22.014;2022-09-12T00:42:28;98762.94;;;13.09;72.69
65010;BME280;51556;50.002;22.014;2022-09-12T00:44:53;98763.52;;;13.08;73.00
65010;BME280;51556;50.002;22.014;2022-09-12T00:47:25;98763.55;;;13.11;73.13
65010;BME280;51556;50.002;22.014;2022-09-12T00:50:07;98758.75;;;13.08;72.68
65010;BME280;51556;50.002;22.014;2022-09-12T00:52:39;98758.65;;;13.10;72.49
65010;BME280;51556;50.002;22.014;2022-09-12T00:55:13;98758.04;;;13.00;72.16
65010;BME280;51556;50.002;22.014;2022-09-12T00:57:46;98756.96;;;12.97;72.23
65010;BME280;51556;50.002;22.014;2022-09-12T01:00:17;98754.67;;;12.89;71.85
65010;BME280;51556;50.002;22.014;2022-09-12T01:02:59;98757.32;;;12.89;72.10
65010;BME280;51556;50.002;22.014;2022-09-12T01:05:27;98761.96;;;12.88;71.70
65010;BME280;51556;50.002;22.014;2022-09-12T01:07:55;98764.86;;;12.82;71.10
65010;BME280;51556;50.002;22.014;2022-09-12T01:10:22;98757.44;;;12.82;71.42
65010;BME280;51556;50.002;22.014;2022-09-12T01:12:48;98762.38;;;12.82;71.41
65010;BME280;51556;50.002;22.014;2022-09-12T01:15:13;98762.35;;;12.87;71.58
65010;BME280;51556;50.002;22.014;2022-09-12T01:34:13;98768.54;;;12.38;74.42
65010;BME280;51556;50.002;22.014;2022-09-12T01:37:00;98764.98;;;12.38;74.46
65010;BME280;51556;50.002;22.014;2022-09-12T01:42:15;98763.11;;;12.37;74.34
65010;BME280;51556;50.002;22.014;2022-09-12T01:45:19;98761.67;;;12.29;74.50
65010;BME280;51556;50.002;22.014;2022-09-12T01:47:48;98760.48;;;12.36;74.14
65010;BME280;51556;50.002;22.014;2022-09-12T01:50:27;98755.66;;;12.34;74.22
65010;BME280;51556;50.002;22.014;2022-09-12T01:58:10;98754.80;;;12.42;72.97
65010;BME280;51556;50.002;22.014;2022-09-12T02:00:46;98758.09;;;12.43;72.51
65010;BME280;51556;50.002;22.014;2022-09-12T02:03:18;98758.78;;;12.43;72.10
65010;BME280;51556;50.002;22.014;2022-09-12T02:05:54;98760.64;;;12.41;72.01
65010;BME280;51556;50.002;22.014;2022-09-12T02:08:30;98758.02;;;12.45;72.07
65010;BME280;51556;50.002;22.014;2022-09-12T02:11:09;98762.52;;;12.43;71.89
65010;BME280;51556;50.002;22.014;2022-09-12T02:18:49;98768.34;;;12.38;71.73
65010;BME280;51556;50.002;22.014;2022-09-12T02:21:18;98761.23;;;12.40;72.04
65010;BME280;51556;50.002;22.014;2022-09-12T02:23:51;98760.63;;;12.46;72.08
65010;BME280;51556;50.002;22.014;2022-09-12T02:26:22;98763.52;;;12.48;71.93
65010;BME280;51556;50.002;22.014;2022-09-12T02:28:50;98763.81;;;12.41;72.00
65010;BME280;51556;50.002;22.014;2022-09-12T02:31:36;98762.45;;;12.36;71.92
65010;BME280;51556;50.002;22.014;2022-09-12T02:34:53;98758.56;;;12.27;72.10
65010;BME280;51556;50.002;22.014;2022-09-12T02:37:24;98760.00;;;12.27;72.08
65010;BME280;51556;50.002;22.014;2022-09-12T02:39:53;98761.25;;;12.31;72.01
65010;BME280;51556;50.002;22.014;2022-09-12T02:42:20;98759.94;;;12.29;72.10
65010;BME280;51556;50.002;22.014;2022-09-12T02:44:47;98758.72;;;12.28;72.16
65010;BME280;51556;50.002;22.014;2022-09-12T02:47:17;98758.36;;;12.25;72.07
65010;BME280;51556;50.002;22.014;2022-09-12T02:49:44;98759.39;;;12.29;72.00
65010;BME280;51556;50.002;22.014;2022-09-12T02:52:11;98763.79;;;12.29;71.97
65010;BME280;51556;50.002;22.014;2022-09-12T02:54:36;98765.31;;;12.27;72.01
65010;BME280;51556;50.002;22.014;2022-09-12T02:57:04;98766.66;;;12.24;71.88
65010;BME280;51556;50.002;22.014;2022-09-12T02:59:30;98765.09;;;12.27;71.95
65010;BME280;51556;50.002;22.014;2022-09-12T03:02:03;98766.81;;;12.16;72.09
65010;BME280;51556;50.002;22.014;2022-09-12T03:05:07;98764.95;;;12.10;72.26
65010;BME280;51556;50.002;22.014;2022-09-12T03:10:45;98770.96;;;12.10;72.42
65010;BME280;51556;50.002;22.014;2022-09-12T03:16:16;98780.84;;;11.96;72.66
65010;BME280;51556;50.002;22.014;2022-09-12T03:19:00;98779.73;;;11.93;72.87
65010;BME280;51556;50.002;22.014;2022-09-12T03:21:44;98784.31;;;11.85;73.13
65010;BME280;51556;50.002;22.014;2022-09-12T03:24:19;98784.63;;;11.82;73.10
65010;BME280;51556;50.002;22.014;2022-09-12T03:29:12;98787.12;;;11.86;73.15
65010;BME280;51556;50.002;22.014;2022-09-12T03:31:54;98785.48;;;11.90;73.02
65010;BME280;51556;50.002;22.014;2022-09-12T03:34:22;98793.02;;;11.91;73.04
65010;BME280;51556;50.002;22.014;2022-09-12T03:36:48;98792.46;;;11.93;72.93
65010;BME280;51556;50.002;22.014;2022-09-12T03:39:15;98797.70;;;11.89;73.22
65010;BME280;51556;50.002;22.014;2022-09-12T03:41:41;98798.10;;;11.80;73.38
65010;BME280;51556;50.002;22.014;2022-09-12T03:44:06;98801.67;;;11.78;73.50
65010;BME280;51556;50.002;22.014;2022-09-12T03:46:32;98800.66;;;11.77;73.40
65010;BME280;51556;50.002;22.014;2022-09-12T03:48:58;98804.14;;;11.79;73.44
65010;BME280;51556;50.002;22.014;2022-09-12T03:51:23;98810.43;;;11.80;73.44
65010;BME280;51556;50.002;22.014;2022-09-12T03:53:49;98813.17;;;11.78;73.47
65010;BME280;51556;50.002;22.014;2022-09-12T03:56:14;98808.98;;;11.76;73.53
65010;BME280;51556;50.002;22.014;2022-09-12T03:58:40;98811.48;;;11.66;73.84
65010;BME280;51556;50.002;22.014;2022-09-12T04:01:11;98816.90;;;11.67;73.86
65010;BME280;51556;50.002;22.014;2022-09-12T04:03:41;98812.30;;;11.58;74.34
65010;BME280;51556;50.002;22.014;2022-09-12T04:06:09;98811.79;;;11.58;74.07
65010;BME280;51556;50.002;22.014;2022-09-12T04:08:36;98813.54;;;11.58;74.18
65010;BME280;51556;50.002;22.014;2022-09-12T04:11:12;98813.93;;;11.62;74.09
65010;BME280;51556;50.002;22.014;2022-09-12T04:13:40;98812.48;;;11.63;74.07
65010;BME280;51556;50.002;22.014;2022-09-12T04:16:06;98815.58;;;11.60;74.15
65010;BME280;51556;50.002;22.014;2022-09-12T04:18:33;98812.46;;;11.54;74.16
65010;BME280;51556;50.002;22.014;2022-09-12T04:21:06;98813.14;;;11.50;74.44
65010;BME280;51556;50.002;22.014;2022-09-12T04:23:32;98817.55;;;11.41;74.73
65010;BME280;51556;50.002;22.014;2022-09-12T04:26:00;98817.22;;;11.41;74.73
65010;BME280;51556;50.002;22.014;2022-09-12T04:28:27;98816.58;;;11.44;74.67
65010;BME280;51556;50.002;22.014;2022-09-12T04:30:53;98825.03;;;11.44;74.66
65010;BME280;51556;50.002;22.014;2022-09-12T04:33:19;98821.14;;;11.49;74.58
65010;BME280;51556;50.002;22.014;2022-09-12T04:35:44;98823.55;;;11.54;74.56
65010;BME280;51556;50.002;22.014;2022-09-12T04:38:10;98826.66;;;11.56;74.55
65010;BME280;51556;50.002;22.014;2022-09-12T04:40:36;98827.13;;;11.58;74.44
65010;BME280;51556;50.002;22.014;2022-09-12T04:43:03;98832.25;;;11.58;74.47
65010;BME280;51556;50.002;22.014;2022-09-12T04:45:29;98832.48;;;11.56;74.56
65010;BME280;51556;50.002;22.014;2022-09-12T04:47:55;98827.91;;;11.56;74.58
65010;BME280;51556;50.002;22.014;2022-09-12T04:50:21;98832.77;;;11.58;74.61
65010;BME280;51556;50.002;22.014;2022-09-12T04:52:53;98830.00;;;11.57;74.59
65010;BME280;51556;50.002;22.014;2022-09-12T04:55:19;98835.42;;;11.57;75.41
65010;BME280;51556;50.002;22.014;2022-09-12T04:57:45;98837.08;;;11.60;75.34
65010;BME280;51556;50.002;22.014;2022-09-12T05:00:11;98833.95;;;11.64;74.86
65010;BME280;51556;50.002;22.014;2022-09-12T05:02:40;98835.12;;;11.65;74.73
65010;BME280;51556;50.002;22.014;2022-09-12T05:05:06;98834.31;;;11.68;74.44
65010;BME280;51556;50.002;22.014;2022-09-12T05:07:33;98838.04;;;11.72;74.49
65010;BME280;51556;50.002;22.014;2022-09-12T05:09:59;98835.04;;;11.72;74.38
65010;BME280;51556;50.002;22.014;2022-09-12T05:12:26;98842.13;;;11.76;74.35
65010;BME280;51556;50.002;22.014;2022-09-12T05:14:52;98846.46;;;11.79;74.23
65010;BME280;51556;50.002;22.014;2022-09-12T05:17:17;98850.56;;;11.77;74.39
65010;BME280;51556;50.002;22.014;2022-09-12T05:19:43;98855.43;;;11.80;74.49
65010;BME280;51556;50.002;22.014;2022-09-12T05:22:08;98857.02;;;11.79;74.40
65010;BME280;51556;50.002;22.014;2022-09-12T05:24:34;98857.88;;;11.84;74.24
65010;BME280;51556;50.002;22.014;2022-09-12T05:27:02;98862.27;;;11.85;74.33
65010;BME280;51556;50.002;22.014;2022-09-12T05:29:29;98864.53;;;11.86;74.34
65010;BME280;51556;50.002;22.014;2022-09-12T05:31:54;98868.77;;;11.86;74.41
65010;BME280;51556;50.002;22.014;2022-09-12T05:34:20;98866.98;;;11.87;74.20
65010;BME280;51556;50.002;22.014;2022-09-12T05:36:46;98869.90;;;11.92;74.01
65010;BME280;51556;50.002;22.014;2022-09-12T05:39:11;98867.38;;;11.93;73.98
65010;BME280;51556;50.002;22.014;2022-09-12T05:41:37;98873.52;;;11.90;73.90
65010;BME280;51556;50.002;22.014;2022-09-12T05:44:04;98873.49;;;11.95;74.07
65010;BME280;51556;50.002;22.014;2022-09-12T05:46:35;98870.63;;;12.01;74.00
65010;BME280;51556;50.002;22.014;2022-09-12T05:49:04;98868.92;;;12.04;73.65
65010;BME280;51556;50.002;22.014;2022-09-12T05:51:32;98871.40;;;12.03;73.94
65010;BME280;51556;50.002;22.014;2022-09-12T05:54:00;98868.39;;;12.04;73.64
65010;BME280;51556;50.002;22.014;2022-09-12T05:56:29;98863.79;;;11.95;73.82
65010;BME280;51556;50.002;22.014;2022-09-12T05:59:00;98862.45;;;12.02;73.78
65010;BME280;51556;50.002;22.014;2022-09-12T06:01:28;98857.54;;;12.11;73.64
65010;BME280;51556;50.002;22.014;2022-09-12T06:03:56;98854.10;;;12.18;73.42
65010;BME280;51556;50.002;22.014;2022-09-12T06:06:23;98854.90;;;12.24;73.24
65010;BME280;51556;50.002;22.014;2022-09-12T06:08:51;98854.30;;;12.25;73.13
65010;BME280;51556;50.002;22.014;2022-09-12T06:11:20;98856.26;;;12.29;73.05
65010;BME280;51556;50.002;22.014;2022-09-12T06:13:47;98857.61;;;12.35;72.86
65010;BME280;51556;50.002;22.014;2022-09-12T06:16:18;98859.00;;;12.40;72.36
65010;BME280;51556;50.002;22.014;2022-09-12T06:18:47;98864.10;;;12.40;72.19
65010;BME280;51556;50.002;22.014;2022-09-12T06:21:13;98865.17;;;12.40;72.46
65010;BME280;51556;50.002;22.014;2022-09-12T06:23:42;98863.02;;;12.41;72.08
65010;BME280;51556;50.002;22.014;2022-09-12T06:26:10;98864.44;;;12.32;72.18
65010;BME280;51556;50.002;22.014;2022-09-12T06:28:43;98865.73;;;12.26;72.14
65010;BME280;51556;50.002;22.014;2022-09-12T06:31:17;98867.51;;;12.30;72.42
65010;BME280;51556;50.002;22.014;2022-09-12T06:33:46;98870.80;;;12.37;72.11
65010;BME280;51556;50.002;22.014;2022-09-12T06:36:14;98869.60;;;12.39;72.23
65010;BME280;51556;50.002;22.014;2022-09-12T06:38:40;98877.40;;;12.43;71.98
65010;BME280;51556;50.002;22.014;2022-09-12T06:41:09;98877.59;;;12.43;71.63
65010;BME280;51556;50.002;22.014;2022-09-12T06:43:36;98872.16;;;12.42;71.62
65010;BME280;51556;50.002;22.014;2022-09-12T06:46:02;98876.77;;;12.42;71.24
65010;BME280;51556;50.002;22.014;2022-09-12T06:48:27;98879.77;;;12.41;71.46
65010;BME280;51556;50.002;22.014;2022-09-12T06:50:58;98884.24;;;12.44;71.50
65010;BME280;51556;50.002;22.014;2022-09-12T06:53:25;98886.34;;;12.49;71.45
65010;BME280;51556;50.002;22.014;2022-09-12T06:56:00;98889.75;;;12.48;71.16
65010;BME280;51556;50.002;22.014;2022-09-12T06:58:27;98897.16;;;12.48;71.08
65010;BME280;51556;50.002;22.014;2022-09-12T07:01:04;98896.11;;;12.52;71.36
65010;BME280;51556;50.002;22.014;2022-09-12T07:03:30;98901.55;;;12.49;70.94
65010;BME280;51556;50.002;22.014;2022-09-12T07:05:56;98907.44;;;12.47;71.21
65010;BME280;51556;50.002;22.014;2022-09-12T07:08:25;98907.75;;;12.48;71.24
65010;BME280;51556;50.002;22.014;2022-09-12T07:10:50;98907.86;;;12.50;71.24
65010;BME280;51556;50.002;22.014;2022-09-12T07:13:16;98910.15;;;12.45;71.09
65010;BME280;51556;50.002;22.014;2022-09-12T07:15:41;98909.92;;;12.47;71.28
65010;BME280;51556;50.002;22.014;2022-09-12T07:18:09;98909.56;;;12.55;70.99
65010;BME280;51556;50.002;22.014;2022-09-12T07:20:35;98913.07;;;12.56;71.54
65010;BME280;51556;50.002;22.014;2022-09-12T07:23:03;98909.34;;;12.65;71.91
65010;BME280;51556;50.002;22.014;2022-09-12T07:25:29;98915.95;;;12.67;70.85
65010;BME280;51556;50.002;22.014;2022-09-12T07:27:54;98910.75;;;12.61;70.45
65010;BME280;51556;50.002;22.014;2022-09-12T07:30:20;98916.18;;;12.58;70.50
65010;BME280;51556;50.002;22.014;2022-09-12T07:32:51;98917.38;;;12.59;70.61
65010;BME280;51556;50.002;22.014;2022-09-12T07:35:16;98915.27;;;12.67;70.83
65010;BME280;51556;50.002;22.014;2022-09-12T07:37:42;98917.17;;;12.77;70.52
65010;BME280;51556;50.002;22.014;2022-09-12T07:40:08;98924.71;;;12.82;70.30
65010;BME280;51556;50.002;22.014;2022-09-12T07:42:34;98923.59;;;12.88;70.15
65010;BME280;51556;50.002;22.014;2022-09-12T07:45:00;98922.48;;;12.93;70.09
65010;BME280;51556;50.002;22.014;2022-09-12T07:47:25;98920.31;;;12.99;69.71
65010;BME280;51556;50.002;22.014;2022-09-12T07:49:50;98924.64;;;13.00;69.78
65010;BME280;51556;50.002;22.014;2022-09-12T07:52:17;98931.66;;;13.01;68.99
65010;BME280;51556;50.002;22.014;2022-09-12T07:54:42;98933.17;;;13.03;69.33
65010;BME280;51556;50.002;22.014;2022-09-12T07:57:08;98931.77;;;13.07;69.46
65010;BME280;51556;50.002;22.014;2022-09-12T07:59:34;98939.69;;;13.12;69.31
65010;BME280;51556;50.002;22.014;2022-09-12T08:01:59;98939.52;;;13.17;69.05
65010;BME280;51556;50.002;22.014;2022-09-12T08:04:25;98937.29;;;13.19;68.92
65010;BME280;51556;50.002;22.014;2022-09-12T08:06:50;98939.15;;;13.21;68.97
65010;BME280;51556;50.002;22.014;2022-09-12T08:09:16;98939.29;;;13.18;68.60
65010;BME280;51556;50.002;22.014;2022-09-12T08:11:41;98941.20;;;13.15;68.75
65010;BME280;51556;50.002;22.014;2022-09-12T08:14:08;98940.50;;;13.18;69.12
65010;BME280;51556;50.002;22.014;2022-09-12T08:16:33;98942.13;;;13.26;68.65
65010;BME280;51556;50.002;22.014;2022-09-12T08:19:01;98943.77;;;13.29;68.75
65010;BME280;51556;50.002;22.014;2022-09-12T08:21:28;98941.00;;;13.19;68.79
65010;BME280;51556;50.002;22.014;2022-09-12T08:24:04;98943.16;;;13.22;69.20
65010;BME280;51556;50.002;22.014;2022-09-12T08:26:31;98941.58;;;13.27;69.21
65010;BME280;51556;50.002;22.014;2022-09-12T08:28:57;98943.90;;;13.30;69.07
65010;BME280;51556;50.002;22.014;2022-09-12T08:31:25;98940.13;;;13.32;68.95
65010;BME280;51556;50.002;22.014;2022-09-12T08:33:53;98944.23;;;13.26;68.75
65010;BME280;51556;50.002;22.014;2022-09-12T08:36:24;98940.31;;;13.27;69.07
65010;BME280;51556;50.002;22.014;2022-09-12T08:38:52;98940.48;;;13.32;68.97
65010;BME280;51556;50.002;22.014;2022-09-12T08:41:37;98942.98;;;13.31;68.82
65010;BME280;51556;50.002;22.014;2022-09-12T08:53:11;98944.73;;;13.31;68.17
65010;BME280;51556;50.002;22.014;2022-09-12T08:55:58;98946.67;;;13.39;68.61
65010;BME280;51556;50.002;22.014;2022-09-12T08:58:26;98949.95;;;13.49;68.39
65010;BME280;51556;50.002;22.014;2022-09-12T09:15:10;98949.80;;;13.73;67.58
65010;BME280;51556;50.002;22.014;2022-09-12T09:17:45;98957.94;;;13.76;67.05
65010;BME280;51556;50.002;22.014;2022-09-12T09:20:45;98958.48;;;13.84;66.87
65010;BME280;51556;50.002;22.014;2022-09-12T09:23:24;98960.50;;;13.86;66.33
65010;BME280;51556;50.002;22.014;2022-09-12T09:26:04;98960.60;;;13.76;66.60
65010;BME280;51556;50.002;22.014;2022-09-12T09:31:38;98961.15;;;13.75;67.17
65010;BME280;51556;50.002;22.014;2022-09-12T09:34:22;98967.66;;;13.84;67.30
65010;BME280;51556;50.002;22.014;2022-09-12T09:42:52;98971.81;;;13.82;68.13
65010;BME280;51556;50.002;22.014;2022-09-12T09:45:13;98972.22;;;13.77;67.83
65010;BME280;51556;50.002;22.014;2022-09-12T09:47:52;98973.29;;;13.74;68.02
65010;BME280;51556;50.002;22.014;2022-09-12T09:50:21;98976.92;;;13.72;68.06
65010;BME280;51556;50.002;22.014;2022-09-12T09:52:49;98976.14;;;13.69;68.35
65010;BME280;51556;50.002;22.014;2022-09-12T09:55:27;98979.48;;;13.69;68.49
65010;BME280;51556;50.002;22.014;2022-09-12T09:57:54;98982.41;;;13.71;68.21
65010;BME280;51556;50.002;22.014;2022-09-12T10:00:35;98984.75;;;13.66;68.65
65010;BME280;51556;50.002;22.014;2022-09-12T10:05:48;98988.70;;;13.53;69.94
65010;BME280;51556;50.002;22.014;2022-09-12T10:08:26;98987.71;;;13.39;70.64
65010;BME280;51556;50.002;22.014;2022-09-12T10:13:50;98992.01;;;13.12;71.14
65010;BME280;51556;50.002;22.014;2022-09-12T10:16:21;98995.94;;;13.20;71.04
65010;BME280;51556;50.002;22.014;2022-09-12T10:18:49;98998.38;;;13.21;70.91
65010;BME280;51556;50.002;22.014;2022-09-12T10:24:03;98999.40;;;13.17;71.27
65010;BME280;51556;50.002;22.014;2022-09-12T10:26:36;99001.22;;;13.25;71.20
65010;BME280;51556;50.002;22.014;2022-09-12T10:29:10;99003.33;;;13.33;71.20
65010;BME280;51556;50.002;22.014;2022-09-12T10:31:50;99003.52;;;13.41;70.99
65010;BME280;51556;50.002;22.014;2022-09-12T10:34:25;99010.67;;;13.48;70.88
65010;BME280;51556;50.002;22.014;2022-09-12T10:37:04;99013.40;;;13.46;70.83
65010;BME280;51556;50.002;22.014;2022-09-12T10:39:31;99013.09;;;13.49;71.25
65010;BME280;51556;50.002;22.014;2022-09-12T10:42:00;99014.33;;;13.57;71.16
65010;BME280;51556;50.002;22.014;2022-09-12T10:44:28;99016.98;;;13.57;71.22
65010;BME280;51556;50.002;22.014;2022-09-12T10:46:56;99019.09;;;13.58;71.47
65010;BME280;51556;50.002;22.014;2022-09-12T10:49:31;99022.45;;;13.62;71.36
65010;BME280;51556;50.002;22.014;2022-09-12T10:52:22;99026.48;;;13.58;71.66
65010;BME280;51556;50.002;22.014;2022-09-12T10:54:49;99021.01;;;13.58;71.41
65010;BME280;51556;50.002;22.014;2022-09-12T11:02:50;99024.19;;;13.63;71.78
65010;BME280;51556;50.002;22.014;2022-09-12T11:05:32;99026.96;;;13.59;71.70
65010;BME280;51556;50.002;22.014;2022-09-12T11:10:54;99026.24;;;13.47;72.26
65010;BME280;51556;50.002;22.014;2022-09-12T11:13:29;99030.71;;;13.42;72.44
65010;BME280;51556;50.002;22.014;2022-09-12T11:35:51;99042.90;;;13.55;73.19
65010;BME280;51556;50.002;22.014;2022-09-12T11:40:50;99045.08;;;13.50;73.60
65010;BME280;51556;50.002;22.014;2022-09-12T11:51:52;99052.88;;;13.57;74.06
65010;BME280;51556;50.002;22.014;2022-09-12T11:54:48;99055.11;;;13.55;74.02
65010;BME280;51556;50.002;22.014;2022-09-12T12:00:21;99055.70;;;13.57;74.05
65010;BME280;51556;50.002;22.014;2022-09-12T12:05:52;99063.35;;;13.61;74.12
65010;BME280;51556;50.002;22.014;2022-09-12T12:08:24;99062.20;;;13.63;73.78
65010;BME280;51556;50.002;22.014;2022-09-12T12:10:56;99065.57;;;13.62;73.64
65010;BME280;51556;50.002;22.014;2022-09-12T12:13:27;99066.29;;;13.62;73.70
65010;BME280;51556;50.002;22.014;2022-09-12T12:18:27;99071.17;;;13.64;73.89
65010;BME280;51556;50.002;22.014;2022-09-12T12:20:54;99069.45;;;13.63;74.06
65010;BME280;51556;50.002;22.014;2022-09-12T12:23:33;99070.63;;;13.60;73.80
65010;BME280;51556;50.002;22.014;2022-09-12T12:26:01;99069.02;;;13.60;74.08
65010;BME280;51556;50.002;22.014;2022-09-12T12:31:07;99071.45;;;13.53;74.28
65010;BME280;51556;50.002;22.014;2022-09-12T12:38:39;99076.06;;;13.49;74.65
65010;BME280;51556;50.002;22.014;2022-09-12T12:43:47;99078.63;;;13.55;74.54
65010;BME280;51556;50.002;22.014;2022-09-12T12:46:17;99079.46;;;13.52;74.43
65010;BME280;51556;50.002;22.014;2022-09-12T12:49:09;99080.95;;;13.46;74.61
65010;BME280;51556;50.002;22.014;2022-09-12T12:51:54;99080.51;;;13.48;74.47
65010;BME280;51556;50.002;22.014;2022-09-12T12:54:33;99082.02;;;13.50;74.47
65010;BME280;51556;50.002;22.014;2022-09-12T12:59:59;99083.78;;;13.46;74.70
65010;BME280;51556;50.002;22.014;2022-09-12T13:02:49;99085.51;;;13.38;74.59
65010;BME280;51556;50.002;22.014;2022-09-12T13:05:21;99088.35;;;13.33;74.83
65010;BME280;51556;50.002;22.014;2022-09-12T13:07:54;99088.96;;;13.36;74.87
65010;BME280;51556;50.002;22.014;2022-09-12T13:10:26;99089.00;;;13.39;74.77
65010;BME280;51556;50.002;22.014;2022-09-12T13:12:55;99085.98;;;13.35;74.74
65010;BME280;51556;50.002;22.014;2022-09-12T13:18:11;99090.57;;;13.35;74.97
65010;BME280;51556;50.002;22.014;2022-09-12T13:20:52;99087.41;;;13.31;75.04
65010;BME280;51556;50.002;22.014;2022-09-12T13:23:23;99089.79;;;13.29;75.45
65010;BME280;51556;50.002;22.014;2022-09-12T13:25:57;99090.73;;;13.23;75.75
65010;BME280;51556;50.002;22.014;2022-09-12T13:28:25;99090.16;;;13.24;75.49
65010;BME280;51556;50.002;22.014;2022-09-12T13:31:06;99091.00;;;13.25;75.82
65010;BME280;51556;50.002;22.014;2022-09-12T13:33:44;99093.25;;;13.22;75.94
65010;BME280;51556;50.002;22.014;2022-09-12T13:44:02;99099.41;;;13.22;77.16
65010;BME280;51556;50.002;22.014;2022-09-12T13:46:32;99100.36;;;13.25;77.05
65010;BME280;51556;50.002;22.014;2022-09-12T13:49:00;99101.39;;;13.26;77.10
65010;BME280;51556;50.002;22.014;2022-09-12T13:51:31;99099.83;;;13.21;77.06
65010;BME280;51556;50.002;22.014;2022-09-12T13:54:00;99103.49;;;13.17;77.37
65010;BME280;51556;50.002;22.014;2022-09-12T13:56:27;99101.18;;;13.13;77.44
65010;BME280;51556;50.002;22.014;2022-09-12T13:58:54;99100.33;;;13.12;77.66
65010;BME280;51556;50.002;22.014;2022-09-12T14:01:21;99101.73;;;13.17;77.70
65010;BME280;51556;50.002;22.014;2022-09-12T14:03:55;99101.93;;;13.21;77.46
65010;BME280;51556;50.002;22.014;2022-09-12T14:06:49;99104.45;;;13.24;77.41
65010;BME280;51556;50.002;22.014;2022-09-12T14:09:22;99105.84;;;13.30;77.42
65010;BME280;51556;50.002;22.014;2022-09-12T14:11:49;99102.78;;;13.35;77.27
65010;BME280;51556;50.002;22.014;2022-09-12T14:16:53;99101.88;;;13.40;76.93
65010;BME280;51556;50.002;22.014;2022-09-12T14:19:22;99103.44;;;13.36;76.99
65010;BME280;51556;50.002;22.014;2022-09-12T14:21:51;99096.91;;;13.32;77.09
65010;BME280;51556;50.002;22.014;2022-09-12T14:24:18;99098.94;;;13.30;77.13
65010;BME280;51556;50.002;22.014;2022-09-12T14:26:50;99099.24;;;13.26;77.25
65010;BME280;51556;50.002;22.014;2022-09-12T14:29:17;99098.85;;;13.28;77.04
65010;BME280;51556;50.002;22.014;2022-09-12T14:31:44;99098.96;;;13.25;77.00
65010;BME280;51556;50.002;22.014;2022-09-12T14:34:12;99106.11;;;13.27;77.32
65010;BME280;51556;50.002;22.014;2022-09-12T14:36:45;99100.13;;;13.31;77.17
65010;BME280;51556;50.002;22.014;2022-09-12T14:39:23;99099.25;;;13.31;76.97
65010;BME280;51556;50.002;22.014;2022-09-12T14:42:00;99091.89;;;13.34;77.04
65010;BME280;51556;50.002;22.014;2022-09-12T14:44:27;99092.22;;;13.34;76.91
65010;BME280;51556;50.002;22.014;2022-09-12T14:47:01;99088.27;;;13.36;76.78
65010;BME280;51556;50.002;22.014;2022-09-12T14:49:35;99091.75;;;13.41;76.85
65010;BME280;51556;50.002;22.014;2022-09-12T14:52:07;99090.16;;;13.45;76.67
65010;BME280;51556;50.002;22.014;2022-09-12T14:54:58;99092.55;;;13.52;76.53
65010;BME280;51556;50.002;22.014;2022-09-12T14:57:37;99090.35;;;13.54;76.34
65010;BME280;51556;50.002;22.014;2022-09-12T15:00:14;99085.57;;;13.54;76.38
65010;BME280;51556;50.002;22.014;2022-09-12T15:02:43;99081.48;;;13.58;76.47
65010;BME280;51556;50.002;22.014;2022-09-12T15:07:41;99081.85;;;13.66;75.91
65010;BME280;51556;50.002;22.014;2022-09-12T15:10:27;99080.98;;;13.66;76.04
65010;BME280;51556;50.002;22.014;2022-09-12T15:15:30;99079.32;;;13.75;76.00
65010;BME280;51556;50.002;22.014;2022-09-12T15:17:56;99078.16;;;13.74;75.67
65010;BME280;51556;50.002;22.014;2022-09-12T15:20:22;99079.40;;;13.74;75.83
65010;BME280;51556;50.002;22.014;2022-09-12T15:22:48;99082.87;;;13.75;76.06
65010;BME280;51556;50.002;22.014;2022-09-12T15:25:14;99085.48;;;13.76;76.08
65010;BME280;51556;50.002;22.014;2022-09-12T15:27:40;99092.35;;;13.81;75.93
65010;BME280;51556;50.002;22.014;2022-09-12T15:30:10;99091.73;;;13.83;75.52
65010;BME280;51556;50.002;22.014;2022-09-12T15:32:38;99103.08;;;13.87;75.50
65010;BME280;51556;50.002;22.014;2022-09-12T15:35:24;99101.73;;;13.89;75.42
65010;BME280;51556;50.002;22.014;2022-09-12T15:37:50;99097.36;;;13.92;75.14
65010;BME280;51556;50.002;22.014;2022-09-12T15:40:16;99097.52;;;13.92;74.98
65010;BME280;51556;50.002;22.014;2022-09-12T15:42:43;99086.12;;;13.94;75.18
65010;BME280;51556;50.002;22.014;2022-09-12T15:45:18;99090.10;;;13.97;75.08
65010;BME280;51556;50.002;22.014;2022-09-12T15:47:45;99090.50;;;13.99;75.30